createdAt,value
2018-05-09T00:00:32.558Z,16.34
2018-05-09T00:02:58.694Z,16.26
2018-05-09T00:05:30.872Z,16.14
2018-05-09T00:07:56.812Z,16.05
2018-05-09T00:10:22.737Z,15.89
2018-05-09T00:12:48.688Z,15.83
2018-05-09T00:15:17.942Z,15.94
2018-05-09T00:17:43.870Z,15.91
2018-05-09T00:20:11.149Z,15.92
2018-05-09T00:22:37.095Z,15.95
2018-05-09T00:25:03.061Z,15.85
2018-05-09T00:27:30.191Z,15.79
2018-05-09T00:29:56.090Z,15.75
2018-05-09T00:32:23.322Z,15.60
2018-05-09T00:34:49.319Z,15.70
2018-05-09T00:37:18.636Z,15.71
2018-05-09T00:39:44.579Z,15.62
2018-05-09T00:42:12.241Z,15.60
2018-05-09T00:44:38.167Z,15.71
2018-05-09T00:47:07.205Z,15.67
2018-05-09T00:49:33.166Z,15.59
2018-05-09T00:52:02.545Z,15.42
2018-05-09T00:54:33.476Z,15.40
2018-05-09T00:56:59.487Z,15.37
2018-05-09T00:59:25.440Z,15.35
2018-05-09T01:01:51.404Z,15.40
2018-05-09T01:04:17.340Z,15.47
2018-05-09T01:06:43.387Z,15.52
2018-05-09T01:09:09.328Z,15.50
2018-05-09T01:11:35.297Z,15.40
2018-05-09T01:14:02.937Z,15.38
2018-05-09T01:16:28.867Z,15.30
2018-05-09T01:18:58.574Z,15.36
2018-05-09T01:21:24.544Z,15.32
2018-05-09T01:23:53.693Z,15.26
2018-05-09T01:26:19.681Z,15.15
2018-05-09T01:28:47.392Z,14.92
2018-05-09T01:31:13.286Z,14.98
2018-05-09T01:33:42.444Z,15.06
2018-05-09T01:36:08.364Z,15.10
2018-05-09T01:38:34.320Z,15.11
2018-05-09T01:41:00.263Z,15.09
2018-05-09T01:43:26.170Z,15.09
2018-05-09T01:45:53.900Z,14.98
2018-05-09T01:48:19.840Z,14.95
2018-05-09T01:50:49.069Z,14.97
2018-05-09T01:53:15.012Z,14.85
2018-05-09T01:55:42.625Z,14.77
2018-05-09T01:58:08.567Z,14.81
2018-05-09T02:00:37.971Z,14.76
2018-05-09T02:03:03.949Z,14.62
2018-05-09T02:05:33.261Z,14.58
2018-05-09T02:07:59.199Z,14.53
2018-05-09T02:10:27.170Z,14.52
2018-05-09T02:12:53.121Z,14.53
2018-05-09T02:15:19.086Z,14.50
2018-05-09T02:17:45.046Z,14.56
2018-05-09T02:20:10.977Z,14.59
2018-05-09T02:22:38.626Z,14.51
2018-05-09T02:25:04.606Z,14.44
2018-05-09T02:27:33.477Z,14.43
2018-05-09T02:29:59.391Z,14.45
2018-05-09T02:32:28.894Z,14.45
2018-05-09T02:34:54.808Z,14.51
2018-05-09T02:37:24.188Z,14.40
2018-05-09T02:39:50.136Z,14.53
2018-05-09T02:42:17.507Z,14.49
2018-05-09T02:44:43.425Z,14.51
2018-05-09T02:47:13.273Z,14.52
2018-05-09T02:49:39.215Z,14.38
2018-05-09T02:52:05.140Z,14.50
2018-05-09T02:54:31.093Z,14.44
2018-05-09T02:56:57.009Z,14.40
2018-05-09T02:59:23.970Z,14.30
2018-05-09T03:01:49.952Z,14.27
2018-05-09T03:04:19.617Z,14.24
2018-05-09T03:06:45.571Z,14.22
2018-05-09T03:09:13.324Z,14.29
2018-05-09T03:11:39.233Z,14.22
2018-05-09T03:14:08.611Z,14.18
2018-05-09T03:16:34.552Z,14.08
2018-05-09T03:19:04.238Z,14.09
2018-05-09T03:21:30.187Z,14.20
2018-05-09T03:23:57.760Z,14.30
2018-05-09T03:26:23.731Z,14.15
2018-05-09T03:28:49.618Z,14.11
2018-05-09T03:31:15.589Z,14.10
2018-05-09T03:33:41.492Z,14.08
2018-05-09T03:36:10.856Z,14.09
2018-05-09T03:38:36.787Z,14.03
2018-05-09T03:41:03.663Z,13.97
2018-05-09T03:43:29.620Z,14.01
2018-05-09T03:45:58.520Z,13.85
2018-05-09T03:48:24.466Z,13.58
2018-05-09T03:50:54.136Z,13.28
2018-05-09T03:53:20.170Z,13.21
2018-05-09T03:55:49.119Z,13.26
2018-05-09T03:58:15.079Z,13.43
2018-05-09T04:00:44.346Z,13.45
2018-05-09T04:03:22.662Z,13.40
2018-05-09T04:06:00.742Z,13.46
2018-05-09T04:11:21.621Z,13.33
2018-05-09T04:13:47.568Z,13.40
2018-05-09T04:16:13.528Z,13.44
2018-05-09T04:18:39.446Z,13.29
2018-05-09T04:21:05.392Z,13.33
2018-05-09T04:23:31.319Z,13.42
2018-05-09T04:25:57.234Z,13.53
2018-05-09T04:28:23.166Z,13.67
2018-05-09T04:30:49.177Z,13.65
2018-05-09T04:33:15.079Z,13.59
2018-05-09T04:35:41.023Z,13.70
2018-05-09T04:38:06.966Z,13.80
2018-05-09T04:40:32.886Z,13.94
2018-05-09T04:42:58.808Z,14.04
2018-05-09T04:45:24.760Z,14.04
2018-05-09T04:47:50.683Z,14.02
2018-05-09T04:50:16.747Z,13.97
2018-05-09T04:52:44.584Z,14.01
2018-05-09T04:55:10.520Z,14.07
2018-05-09T04:57:36.459Z,14.27
2018-05-09T05:00:02.361Z,14.36
2018-05-09T05:02:28.288Z,14.38
2018-05-09T05:04:54.229Z,14.37
2018-05-09T05:07:20.152Z,14.21
2018-05-09T05:09:46.087Z,14.18
2018-05-09T05:12:12.012Z,14.44
2018-05-09T05:14:44.873Z,14.66
2018-05-09T05:17:10.849Z,14.85
2018-05-09T05:19:36.729Z,14.92
2018-05-09T05:22:02.660Z,14.87
2018-05-09T05:26:47.026Z,14.97
2018-05-09T05:29:13.008Z,14.89
2018-05-09T05:31:38.980Z,14.95
2018-05-09T05:34:04.912Z,15.10
2018-05-09T05:36:30.857Z,15.25
2018-05-09T05:38:56.761Z,15.38
2018-05-09T05:41:22.673Z,15.60
2018-05-09T05:43:48.664Z,15.80
2018-05-09T05:46:15.383Z,15.73
2018-05-09T05:48:41.325Z,15.75
2018-05-09T05:51:07.258Z,16.03
2018-05-09T05:53:33.154Z,16.08
2018-05-09T05:55:59.139Z,15.95
2018-05-09T05:58:25.068Z,16.15
2018-05-09T06:00:51.015Z,16.24
2018-05-09T06:03:16.953Z,16.40
2018-05-09T06:05:42.868Z,16.68
2018-05-09T06:08:08.795Z,16.79
2018-05-09T06:10:34.733Z,16.80
2018-05-09T06:13:00.654Z,16.76
2018-05-09T06:15:26.569Z,16.85
2018-05-09T06:17:55.944Z,17.08
2018-05-09T06:20:21.848Z,17.24
2018-05-09T06:22:50.911Z,17.36
2018-05-09T06:25:16.819Z,17.58
2018-05-09T06:27:44.669Z,17.83
2018-05-09T06:30:10.599Z,18.06
2018-05-09T06:32:36.478Z,18.23
2018-05-09T06:35:02.396Z,18.24
2018-05-09T06:37:28.328Z,18.17
2018-05-09T06:39:56.252Z,18.39
2018-05-09T06:42:22.170Z,18.56
2018-05-09T06:44:51.950Z,18.88
2018-05-09T06:47:17.874Z,19.07
2018-05-09T06:49:46.954Z,18.97
2018-05-09T06:52:12.880Z,18.99
2018-05-09T06:54:39.948Z,19.09
2018-05-09T06:57:05.855Z,19.30
2018-05-09T06:59:35.074Z,19.44
2018-05-09T07:02:01.069Z,19.64
2018-05-09T07:04:30.611Z,19.92
2018-05-09T07:06:56.561Z,20.09
2018-05-09T07:09:22.534Z,20.36
2018-05-09T07:11:48.504Z,20.61
2018-05-09T07:14:14.472Z,20.66
2018-05-09T07:16:41.875Z,20.82
2018-05-09T07:19:07.764Z,20.94
2018-05-09T07:21:35.575Z,20.98
2018-05-09T07:24:01.544Z,21.34
2018-05-09T07:26:30.441Z,21.61
2018-05-09T07:28:56.396Z,21.66
2018-05-09T07:31:26.149Z,21.92
2018-05-09T07:33:52.100Z,22.19
2018-05-09T07:36:21.556Z,22.14
2018-05-09T07:38:47.456Z,21.14
2018-05-09T07:41:14.503Z,20.90
2018-05-09T07:43:40.477Z,20.85
2018-05-09T07:46:06.432Z,21.01
2018-05-09T07:48:32.400Z,21.71
2018-05-09T07:50:58.319Z,22.15
2018-05-09T07:53:27.990Z,22.31
2018-05-09T07:55:53.959Z,22.12
2018-05-09T07:58:20.912Z,21.93
2018-05-09T08:00:46.847Z,21.52
2018-05-09T08:03:15.367Z,21.26
2018-05-09T08:05:41.345Z,21.25
2018-05-09T08:10:38.447Z,22.03
2018-05-09T08:13:05.630Z,22.38
2018-05-09T08:15:31.571Z,22.51
2018-05-09T08:18:01.236Z,22.41
2018-05-09T08:20:27.162Z,22.55
2018-05-09T08:22:53.091Z,22.59
2018-05-09T08:25:19.178Z,22.81
2018-05-09T08:27:45.175Z,22.54
2018-05-09T08:30:12.286Z,22.56
2018-05-09T08:32:38.245Z,23.13
2018-05-09T08:35:07.188Z,23.07
2018-05-09T08:37:33.135Z,23.08
2018-05-09T08:40:02.308Z,23.42
2018-05-09T08:42:28.277Z,23.67
2018-05-09T08:44:55.955Z,24.10
2018-05-09T08:47:21.875Z,24.41
2018-05-09T08:49:51.661Z,24.67
2018-05-09T08:52:17.613Z,24.47
2018-05-09T08:54:45.394Z,24.40
2018-05-09T08:57:11.373Z,24.48
2018-05-09T08:59:37.292Z,24.24
2018-05-09T09:02:03.256Z,24.50
2018-05-09T09:04:29.313Z,24.76
2018-05-09T09:06:56.851Z,25.05
2018-05-09T09:09:22.749Z,25.46
2018-05-09T09:11:51.664Z,25.78
2018-05-09T09:14:17.568Z,26.05
2018-05-09T09:16:46.345Z,25.20
2018-05-09T09:19:12.319Z,25.35
2018-05-09T09:21:41.095Z,25.56
2018-05-09T09:24:07.011Z,25.68
2018-05-09T09:26:36.844Z,25.40
2018-05-09T09:29:02.921Z,25.55
2018-05-09T09:31:30.675Z,25.82
2018-05-09T09:33:56.637Z,25.20
2018-05-09T09:36:22.611Z,24.72
2018-05-09T09:38:48.556Z,24.76
2018-05-09T09:41:14.580Z,25.12
2018-05-09T09:43:42.343Z,25.57
2018-05-09T09:46:08.297Z,25.71
2018-05-09T09:48:37.265Z,25.94
2018-05-09T09:51:03.252Z,26.68
2018-05-09T09:53:32.174Z,26.15
2018-05-09T09:55:58.072Z,26.44
2018-05-09T09:58:27.373Z,26.68
2018-05-09T10:00:53.311Z,26.51
2018-05-09T10:03:21.259Z,26.73
2018-05-09T10:05:47.176Z,26.69
2018-05-09T10:08:16.208Z,26.16
2018-05-09T10:10:43.012Z,26.69
2018-05-09T10:13:08.928Z,27.39
2018-05-09T10:15:34.895Z,27.89
2018-05-09T10:18:00.828Z,28.06
2018-05-09T10:20:28.389Z,28.02
2018-05-09T10:22:54.297Z,27.40
2018-05-09T10:25:23.884Z,26.17
2018-05-09T10:27:49.890Z,26.11
2018-05-09T10:30:17.767Z,26.51
2018-05-09T10:32:43.761Z,27.33
2018-05-09T10:35:13.565Z,27.63
2018-05-09T10:37:39.500Z,27.90
2018-05-09T10:40:07.218Z,28.39
2018-05-09T10:42:33.133Z,28.49
2018-05-09T10:45:01.118Z,28.37
2018-05-09T10:47:27.132Z,28.55
2018-05-09T10:49:53.108Z,28.99
2018-05-09T10:52:19.107Z,28.70
2018-05-09T10:54:45.045Z,28.99
2018-05-09T10:57:14.379Z,29.21
2018-05-09T10:59:40.324Z,28.96
2018-05-09T11:02:08.122Z,29.58
2018-05-09T11:04:34.733Z,29.77
2018-05-09T11:07:03.923Z,29.64
2018-05-09T11:09:29.846Z,29.32
2018-05-09T11:11:57.692Z,29.48
2018-05-09T11:14:23.663Z,29.10
2018-05-09T11:16:53.528Z,28.88
2018-05-09T11:19:19.490Z,29.24
2018-05-09T11:21:47.012Z,29.77
2018-05-09T11:24:12.962Z,30.21
2018-05-09T11:26:38.908Z,29.41
2018-05-09T11:29:04.838Z,29.47
2018-05-09T11:31:30.747Z,28.99
2018-05-09T11:34:00.040Z,28.47
2018-05-09T11:36:26.014Z,28.56
2018-05-09T11:38:52.892Z,29.05
2018-05-09T11:41:18.912Z,29.57
2018-05-09T11:43:47.378Z,30.09
2018-05-09T11:46:13.257Z,29.62
2018-05-09T11:48:42.272Z,29.43
2018-05-09T11:51:08.211Z,29.83
2018-05-09T11:53:37.044Z,30.32
2018-05-09T11:56:03.002Z,29.69
2018-05-09T11:58:32.496Z,29.14
2018-05-09T12:00:58.481Z,28.66
2018-05-09T12:03:24.437Z,28.17
2018-05-09T12:05:50.398Z,28.60
2018-05-09T12:08:16.351Z,29.23
2018-05-09T12:10:44.213Z,28.92
2018-05-09T12:13:10.183Z,29.60
2018-05-09T12:15:39.852Z,30.17
2018-05-09T12:18:05.842Z,29.84
2018-05-09T12:20:34.111Z,30.42
2018-05-09T12:23:00.067Z,30.35
2018-05-09T12:25:29.546Z,30.18
2018-05-09T12:27:55.490Z,30.08
2018-05-09T12:30:22.405Z,30.15
2018-05-09T12:32:48.345Z,28.92
2018-05-09T12:35:17.992Z,27.67
2018-05-09T12:37:43.925Z,28.36
2018-05-09T12:40:09.889Z,29.62
2018-05-09T12:42:35.822Z,30.65
2018-05-09T12:45:01.893Z,31.37
2018-05-09T12:47:29.720Z,31.42
2018-05-09T12:49:55.691Z,30.79
2018-05-09T12:52:23.614Z,30.50
2018-05-09T12:54:49.532Z,30.52
2018-05-09T12:57:19.351Z,30.98
2018-05-09T12:59:45.307Z,31.39
2018-05-09T13:02:13.287Z,31.63
2018-05-09T13:04:39.222Z,31.79
2018-05-09T13:07:08.480Z,32.00
2018-05-09T13:09:34.577Z,31.89
2018-05-09T13:12:03.135Z,31.87
2018-05-09T13:14:29.106Z,31.75
2018-05-09T13:16:55.064Z,31.73
2018-05-09T13:19:21.144Z,32.00
2018-05-09T13:21:47.119Z,31.70
2018-05-09T13:24:14.397Z,30.40
2018-05-09T13:26:40.456Z,30.53
2018-05-09T13:29:08.781Z,30.11
2018-05-09T13:31:34.753Z,29.76
2018-05-09T13:34:03.929Z,30.24
2018-05-09T13:36:29.851Z,30.74
2018-05-09T13:38:59.750Z,31.08
2018-05-09T13:41:25.711Z,31.94
2018-05-09T13:43:53.524Z,31.95
2018-05-09T13:46:19.521Z,31.72
2018-05-09T13:48:49.442Z,29.54
2018-05-09T13:51:15.460Z,29.38
2018-05-09T13:53:41.392Z,28.12
2018-05-09T13:56:07.364Z,28.26
2018-05-09T13:58:33.298Z,28.21
2018-05-09T14:01:00.083Z,29.02
2018-05-09T14:03:26.162Z,29.81
2018-05-09T14:05:55.891Z,29.54
2018-05-09T14:08:21.896Z,28.71
2018-05-09T14:10:49.634Z,28.70
2018-05-09T14:13:15.606Z,29.45
2018-05-09T14:15:44.699Z,29.85
2018-05-09T14:18:10.756Z,30.61
2018-05-09T14:20:38.566Z,31.04
2018-05-09T14:23:04.500Z,31.48
2018-05-09T14:25:33.375Z,31.44
2018-05-09T14:27:59.287Z,31.03
2018-05-09T14:30:25.234Z,31.08
2018-05-09T14:32:51.939Z,30.02
2018-05-09T14:35:18.002Z,29.08
2018-05-09T14:37:46.051Z,29.39
2018-05-09T14:40:12.288Z,29.51
2018-05-09T14:42:41.322Z,29.53
2018-05-09T14:45:07.338Z,30.34
2018-05-09T14:47:35.037Z,30.43
2018-05-09T14:50:00.976Z,30.25
2018-05-09T14:52:30.587Z,29.98
2018-05-09T14:54:56.651Z,29.54
2018-05-09T14:57:24.356Z,28.96
2018-05-09T14:59:50.336Z,28.96
2018-05-09T15:02:20.161Z,28.77
2018-05-09T15:04:46.106Z,29.28
2018-05-09T15:07:12.062Z,29.19
2018-05-09T15:09:38.034Z,29.56
2018-05-09T15:12:04.000Z,28.86
2018-05-09T15:14:30.070Z,29.44
2018-05-09T15:16:56.070Z,30.18
2018-05-09T15:19:25.924Z,30.53
2018-05-09T15:21:51.858Z,30.66
2018-05-09T15:24:21.061Z,30.75
2018-05-09T15:26:47.004Z,30.29
2018-05-09T15:29:14.684Z,29.80
2018-05-09T15:31:40.578Z,29.34
2018-05-09T15:34:10.440Z,29.62
2018-05-09T15:36:36.389Z,30.04
2018-05-09T15:39:04.429Z,30.43
2018-05-09T15:41:30.271Z,30.55
2018-05-09T15:43:56.217Z,30.64
2018-05-09T15:46:22.168Z,30.72
2018-05-09T15:48:48.114Z,30.52
2018-05-09T15:51:15.911Z,30.54
2018-05-09T15:53:41.879Z,30.58
2018-05-09T15:56:11.807Z,30.72
2018-05-09T15:58:37.759Z,30.51
2018-05-09T16:01:05.684Z,30.57
2018-05-09T16:03:31.632Z,30.53
2018-05-09T16:05:59.547Z,29.91
2018-05-09T16:08:25.508Z,30.00
2018-05-09T16:10:55.364Z,29.95
2018-05-09T16:13:21.345Z,30.03
2018-05-09T16:15:49.134Z,29.76
2018-05-09T16:18:15.089Z,29.77
2018-05-09T16:20:41.075Z,29.83
2018-05-09T16:23:07.009Z,29.69
2018-05-09T16:25:33.013Z,29.72
2018-05-09T16:28:02.494Z,29.65
2018-05-09T16:30:28.444Z,29.42
2018-05-09T16:32:56.221Z,29.31
2018-05-09T16:35:22.172Z,29.30
2018-05-09T16:37:58.140Z,29.41
2018-05-09T16:40:24.184Z,29.26
2018-05-09T16:42:50.137Z,29.26
2018-05-09T16:45:16.083Z,29.26
2018-05-09T16:47:42.073Z,29.15
2018-05-09T16:50:08.030Z,29.08
2018-05-09T16:52:34.363Z,28.86
2018-05-09T16:55:00.360Z,28.54
2018-05-09T16:57:26.461Z,28.47
2018-05-09T16:59:52.405Z,28.42
2018-05-09T17:02:18.315Z,28.55
2018-05-09T17:04:46.208Z,28.52
2018-05-09T17:07:12.177Z,28.25
2018-05-09T17:09:40.972Z,28.19
2018-05-09T17:12:06.963Z,28.18
2018-05-09T17:14:35.780Z,28.02
2018-05-09T17:17:01.755Z,27.92
2018-05-09T17:19:30.533Z,27.92
2018-05-09T17:22:14.831Z,27.74
2018-05-09T17:24:40.869Z,27.72
2018-05-09T17:27:06.809Z,27.63
2018-05-09T17:29:32.756Z,27.48
2018-05-09T17:31:58.937Z,27.26
2018-05-09T17:34:24.862Z,27.05
2018-05-09T17:36:50.841Z,26.95
2018-05-09T17:39:16.808Z,26.94
2018-05-09T17:41:42.792Z,26.79
2018-05-09T17:44:08.757Z,26.71
2018-05-09T17:46:34.716Z,26.64
2018-05-09T17:49:00.704Z,26.50
2018-05-09T17:51:26.638Z,26.43
2018-05-09T17:53:52.556Z,26.28
2018-05-09T17:56:18.480Z,26.18
2018-05-09T17:58:44.580Z,26.04
2018-05-09T18:01:10.504Z,25.92
2018-05-09T18:03:36.397Z,25.80
2018-05-09T18:06:05.677Z,25.78
2018-05-09T18:08:31.587Z,25.64
2018-05-09T18:10:57.504Z,25.48
2018-05-09T18:13:23.445Z,25.41
2018-05-09T18:15:49.390Z,25.38
2018-05-09T18:18:17.081Z,25.32
2018-05-09T18:20:44.520Z,25.14
2018-05-09T18:23:11.770Z,25.01
2018-05-09T18:25:37.724Z,24.81
2018-05-09T18:28:07.501Z,24.59
2018-05-09T18:30:33.412Z,24.43
2018-05-09T18:33:01.284Z,24.27
2018-05-09T18:35:27.190Z,24.05
2018-05-09T18:37:56.915Z,23.89
2018-05-09T18:40:22.843Z,23.91
2018-05-09T18:42:52.753Z,23.92
2018-05-09T18:45:18.756Z,23.84
2018-05-09T18:47:44.684Z,23.51
2018-05-09T18:50:10.747Z,23.35
2018-05-09T18:52:36.677Z,23.16
2018-05-09T18:55:02.632Z,23.02
2018-05-09T18:57:28.595Z,22.88
2018-05-09T18:59:57.569Z,22.85
2018-05-09T19:02:23.555Z,22.81
2018-05-09T19:04:52.528Z,22.73
2018-05-09T19:07:18.511Z,22.58
2018-05-09T19:09:46.008Z,22.53
2018-05-09T19:12:11.959Z,22.44
2018-05-09T19:14:41.444Z,22.36
2018-05-09T19:17:07.449Z,22.35
2018-05-09T19:19:36.783Z,22.10
2018-05-09T19:22:02.760Z,21.99
2018-05-09T19:24:28.748Z,21.94
2018-05-09T19:26:54.858Z,21.90
2018-05-09T19:29:20.836Z,21.71
2018-05-09T19:31:47.937Z,21.65
2018-05-09T19:34:13.960Z,21.54
2018-05-09T19:36:43.767Z,21.52
2018-05-09T19:39:09.707Z,21.37
2018-05-09T19:41:37.381Z,21.27
2018-05-09T19:44:03.285Z,21.13
2018-05-09T19:46:33.237Z,21.02
2018-05-09T19:48:59.167Z,21.04
2018-05-09T19:51:26.132Z,20.98
2018-05-09T19:53:52.107Z,20.96
2018-05-09T19:56:21.654Z,20.81
2018-05-09T19:58:47.554Z,20.75
2018-05-09T20:01:13.557Z,20.62
2018-05-09T20:03:39.522Z,20.58
2018-05-09T20:06:05.542Z,20.56
2018-05-09T20:08:32.769Z,20.53
2018-05-09T20:10:58.714Z,20.49
2018-05-09T20:13:27.491Z,20.30
2018-05-09T20:15:53.526Z,20.28
2018-05-09T20:18:23.000Z,20.06
2018-05-09T20:20:48.927Z,20.27
2018-05-09T20:23:18.613Z,20.29
2018-05-09T20:25:44.607Z,20.27
2018-05-09T20:28:11.480Z,20.03
2018-05-09T20:30:43.531Z,19.96
2018-05-09T20:33:09.485Z,19.91
2018-05-09T20:35:35.468Z,19.86
2018-05-09T20:38:01.430Z,19.72
2018-05-09T20:40:27.347Z,19.70
2018-05-09T20:42:53.341Z,19.61
2018-05-09T20:45:19.321Z,19.50
2018-05-09T20:47:45.297Z,19.38
2018-05-09T20:50:12.619Z,19.31
2018-05-09T20:52:38.617Z,19.26
2018-05-09T20:57:58.194Z,19.28
2018-05-09T21:00:24.180Z,19.33
2018-05-09T21:02:50.164Z,19.33
2018-05-09T21:05:16.125Z,19.33
2018-05-09T21:07:54.213Z,19.26
2018-05-09T21:10:20.150Z,19.05
2018-05-09T21:12:46.124Z,19.14
2018-05-09T21:15:12.137Z,18.90
2018-05-09T21:17:39.118Z,19.00
2018-05-09T21:20:05.169Z,19.10
2018-05-09T21:22:31.080Z,19.09
2018-05-09T21:24:57.032Z,19.12
2018-05-09T21:27:23.011Z,19.17
2018-05-09T21:29:48.953Z,19.09
2018-05-09T21:32:14.948Z,19.09
2018-05-09T21:34:40.886Z,18.99
2018-05-09T21:37:06.880Z,18.82
2018-05-09T21:39:32.775Z,18.84
2018-05-09T21:41:58.755Z,18.84
2018-05-09T21:44:24.664Z,18.48
2018-05-09T21:46:50.640Z,18.47
2018-05-09T21:49:16.617Z,18.38
2018-05-09T21:51:42.592Z,18.24
2018-05-09T21:54:08.547Z,18.11
2018-05-09T21:56:34.459Z,17.94
2018-05-09T21:59:00.395Z,17.60
2018-05-09T22:01:26.340Z,17.59
2018-05-09T22:03:52.305Z,17.65
2018-05-09T22:06:18.271Z,17.74
2018-05-09T22:08:44.205Z,17.86
2018-05-09T22:11:10.144Z,17.68
2018-05-09T22:13:36.096Z,17.40
2018-05-09T22:16:02.103Z,17.44
2018-05-09T22:18:28.115Z,17.72
2018-05-09T22:20:54.054Z,17.86
2018-05-09T22:23:23.688Z,18.00
2018-05-09T22:25:49.651Z,18.21
2018-05-09T22:28:15.571Z,18.44
2018-05-09T22:30:41.533Z,18.58
2018-05-09T22:33:07.476Z,18.63
2018-05-09T22:35:34.323Z,18.70
2018-05-09T22:38:00.232Z,18.82
2018-05-09T22:40:30.204Z,18.88
2018-05-09T22:42:56.149Z,18.94
2018-05-09T22:45:23.217Z,18.92
2018-05-09T22:47:49.155Z,18.96
2018-05-09T22:50:18.351Z,18.97
2018-05-09T22:52:44.327Z,18.86
2018-05-09T22:55:13.286Z,18.89
2018-05-09T22:57:39.232Z,18.91
2018-05-09T23:00:09.207Z,18.94
2018-05-09T23:02:35.121Z,18.95
2018-05-09T23:05:01.117Z,18.86
2018-05-09T23:07:27.012Z,18.60
2018-05-09T23:09:52.970Z,18.51
2018-05-09T23:12:20.037Z,18.44
2018-05-09T23:14:47.637Z,18.35
2018-05-09T23:17:14.781Z,18.26
2018-05-09T23:19:41.180Z,18.30
2018-05-09T23:22:08.532Z,18.41
2018-05-09T23:24:34.500Z,18.39
2018-05-09T23:27:03.327Z,18.22
2018-05-09T23:29:29.287Z,18.03
2018-05-09T23:31:58.934Z,18.00
2018-05-09T23:34:24.859Z,18.15
2018-05-09T23:36:54.582Z,18.31
2018-05-09T23:39:20.521Z,18.21
2018-05-09T23:41:47.279Z,18.14
2018-05-09T23:44:13.221Z,18.08
2018-05-09T23:46:39.207Z,17.95
2018-05-09T23:49:05.217Z,17.97
2018-05-09T23:51:31.165Z,18.18
2018-05-09T23:54:00.569Z,17.87
2018-05-09T23:56:26.461Z,18.20
2018-05-09T23:58:55.744Z,18.25
